Time;durP1;ratioP1;P1;durP2;ratioP2;P2;SDS_P1;SDS_P2;PMS_P1;PMS_P2;Temp;Humidity;BMP_temperature;BMP_pressure;BME280_temperature;BME280_humidity;BME280_pressure;Samples;Min_cycle;Max_cycle;Signal;HPM_P1;HPM_P2
2023/02/21 02:15:55;;;;;;;61.47;21.65;;;;;;;7.74;100.00;102038.28;5070891;28;20028;-47
2023/02/21 02:18:42;;;;;;;61.50;22.27;;;;;;;7.74;100.00;102036.47;5070963;28;20138;-45
2023/02/21 02:21:34;;;;;;;65.93;22.52;;;;;;;7.76;100.00;102033.66;5052345;28;20391;-46
2023/02/21 02:24:11;;;;;;;63.58;21.65;;;;;;;7.79;100.00;102036.03;5070961;28;20052;-48
2023/02/21 02:26:48;;;;;;;62.70;22.95;;;;;;;7.81;100.00;102036.78;5052674;28;20025;-45
2023/02/21 02:29:26;;;;;;;55.97;22.63;;;;;;;7.80;100.00;102029.72;5070530;28;20028;-48
2023/02/21 02:32:08;;;;;;;69.20;23.95;;;;;;;7.77;100.00;102028.16;5069246;28;20060;-46
2023/02/21 02:34:46;;;;;;;58.08;22.27;;;;;;;7.75;100.00;102034.63;5070572;28;20119;-46
2023/02/21 02:37:43;;;;;;;57.20;23.08;;;;;;;7.75;100.00;102023.91;5052159;28;20491;-46
2023/02/21 02:40:20;;;;;;;56.15;22.88;;;;;;;7.76;100.00;102017.56;5070342;28;20090;-46
2023/02/21 02:43:09;;;;;;;74.63;26.70;;;;;;;7.74;100.00;102016.84;5069656;28;20539;-44
2023/02/21 02:45:53;;;;;;;64.55;25.25;;;;;;;7.69;100.00;102017.28;5053821;28;20116;-45
2023/02/21 02:48:27;;;;;;;56.97;24.15;;;;;;;7.68;100.00;102021.75;5070977;28;20442;-45
2023/02/21 02:50:53;;;;;;;66.38;27.40;;;;;;;7.69;100.00;102026.16;5053114;28;20464;-45
2023/02/21 02:53:21;;;;;;;63.03;26.55;;;;;;;7.71;100.00;102028.69;5051785;28;20089;-45
2023/02/21 02:55:51;;;;;;;60.75;26.70;;;;;;;7.70;100.00;102019.78;5069800;28;20028;-44
2023/02/21 02:58:16;;;;;;;65.47;26.92;;;;;;;7.68;100.00;102024.44;5070686;28;20024;-44
2023/02/21 03:00:48;;;;;;;64.72;26.77;;;;;;;7.70;100.00;102014.44;5069786;28;20124;-45
2023/02/21 03:03:33;;;;;;;75.30;27.83;;;;;;;7.64;100.00;102017.66;5050721;28;20067;-46
2023/02/21 03:06:29;;;;;;;74.00;29.10;;;;;;;7.65;100.00;102007.78;5051905;28;20119;-46
2023/02/21 03:09:04;;;;;;;83.80;28.30;;;;;;;7.68;100.00;102016.41;5069746;28;20056;-45
2023/02/21 03:11:30;;;;;;;75.07;28.42;;;;;;;7.68;100.00;102019.06;5067702;28;20032;-48
2023/02/21 03:13:58;;;;;;;76.22;28.33;;;;;;;7.69;100.00;102014.59;5069974;28;20059;-47
2023/02/21 03:16:27;;;;;;;76.50;27.70;;;;;;;7.67;100.00;102011.19;5070107;28;20081;-45
2023/02/21 03:19:32;;;;;;;69.53;28.33;;;;;;;7.65;100.00;102005.09;5051883;28;20024;-45
2023/02/21 03:22:01;;;;;;;79.18;27.88;;;;;;;7.62;100.00;102006.22;5014146;28;20072;-45
2023/02/21 03:24:27;;;;;;;76.90;27.80;;;;;;;7.60;100.00;101996.63;5025321;28;20064;-45
2023/02/21 03:27:05;;;;;;;78.90;28.30;;;;;;;7.58;100.00;101999.47;5023883;28;20079;-48
2023/02/21 03:29:31;;;;;;;70.30;28.10;;;;;;;7.59;100.00;101998.47;5050316;28;20099;-46
2023/02/21 03:34:54;;;;;;;66.65;27.60;;;;;;;7.59;100.00;101998.47;5082331;28;20039;-49
2023/02/21 03:37:35;;;;;;;76.63;29.25;;;;;;;7.60;100.00;101999.31;5089841;28;20054;-45
2023/02/21 03:40:03;;;;;;;72.03;27.52;;;;;;;7.63;100.00;102002.53;5077755;28;20284;-47
2023/02/21 03:42:28;;;;;;;79.78;29.70;;;;;;;7.65;100.00;102002.44;5068511;28;20464;-45
2023/02/21 03:44:53;;;;;;;82.53;29.13;;;;;;;7.62;100.00;101995.50;5079494;28;20107;-45
2023/02/21 03:47:19;;;;;;;69.53;28.17;;;;;;;7.64;100.00;102009.63;5084540;28;20052;-48
2023/02/21 03:49:44;;;;;;;69.43;27.67;;;;;;;7.64;100.00;102001.59;5069273;28;20040;-45
2023/02/21 03:52:13;;;;;;;69.50;28.02;;;;;;;7.66;100.00;101998.75;5050002;28;20035;-48
2023/02/21 03:54:39;;;;;;;65.07;28.08;;;;;;;7.65;100.00;102003.28;5069573;28;20032;-45
2023/02/21 03:57:04;;;;;;;76.05;29.80;;;;;;;7.62;100.00;101998.19;5069537;28;20476;-44
2023/02/21 03:59:30;;;;;;;81.43;31.65;;;;;;;7.62;100.00;101992.81;5068789;28;20090;-46
2023/02/21 04:01:55;;;;;;;77.43;31.13;;;;;;;7.63;100.00;101999.03;5068804;28;20134;-47
2023/02/21 04:04:20;;;;;;;72.18;30.50;;;;;;;7.60;100.00;102000.16;5069661;28;20411;-48
2023/02/21 04:06:46;;;;;;;75.05;29.15;;;;;;;7.61;100.00;101993.81;5069556;28;20379;-48
2023/02/21 04:09:11;;;;;;;69.68;30.45;;;;;;;7.59;100.00;101993.09;5069522;28;20036;-48
2023/02/21 04:11:36;;;;;;;67.38;30.17;;;;;;;7.57;100.00;101995.06;5068438;28;20029;-44
2023/02/21 04:14:03;;;;;;;73.38;30.48;;;;;;;7.59;100.00;102003.81;5071984;28;20024;-47
2023/02/21 04:16:29;;;;;;;70.70;30.55;;;;;;;7.55;100.00;101996.19;5072846;28;20070;-47
2023/02/21 04:18:56;;;;;;;77.07;31.02;;;;;;;7.56;100.00;101997.88;5072705;28;20035;-46
2023/02/21 04:21:21;;;;;;;77.18;29.30;;;;;;;7.55;100.00;101999.69;5072483;28;20471;-46
2023/02/21 04:23:46;;;;;;;76.35;30.17;;;;;;;7.54;100.00;101989.97;5073380;28;20035;-48
2023/02/21 04:26:12;;;;;;;75.97;30.83;;;;;;;7.53;100.00;102000.81;5054086;28;20116;-45
2023/02/21 04:28:37;;;;;;;84.50;31.63;;;;;;;7.54;100.00;102000.69;5073530;28;20052;-48
2023/02/21 04:31:02;;;;;;;78.30;31.58;;;;;;;7.54;100.00;101995.34;5072811;28;20028;-47
2023/02/21 04:33:28;;;;;;;82.57;32.50;;;;;;;7.51;100.00;101990.25;5071902;28;20075;-47
2023/02/21 04:35:53;;;;;;;90.85;33.15;;;;;;;7.52;100.00;101991.94;5073063;28;20036;-44
2023/02/21 04:38:18;;;;;;;79.13;29.33;;;;;;;7.54;100.00;101994.50;5072033;28;20033;-46
2023/02/21 04:40:45;;;;;;;74.55;30.27;;;;;;;7.55;100.00;101991.66;5070068;28;20048;-46
2023/02/21 04:43:10;;;;;;;71.13;31.00;;;;;;;7.56;100.00;101993.38;5070457;28;20036;-47
2023/02/21 04:45:35;;;;;;;72.22;30.35;;;;;;;7.55;100.00;101983.63;5069547;28;20551;-47
2023/02/21 04:48:01;;;;;;;72.60;29.88;;;;;;;7.57;100.00;101988.84;5071047;28;20090;-48
2023/02/21 04:50:27;;;;;;;62.67;28.25;;;;;;;7.59;100.00;101992.25;5070647;28;20085;-43
2023/02/21 04:52:53;;;;;;;71.53;30.35;;;;;;;7.58;100.00;101991.41;5070413;28;20496;-46
2023/02/21 04:55:18;;;;;;;72.82;30.55;;;;;;;7.60;100.00;101988.59;5070805;28;20155;-47
2023/02/21 04:57:43;;;;;;;76.00;30.23;;;;;;;7.58;100.00;101991.41;5070631;28;20036;-45
2023/02/21 05:00:09;;;;;;;74.07;29.83;;;;;;;7.59;100.00;101987.75;5069674;28;20143;-47
2023/02/21 05:02:35;;;;;;;81.78;32.13;;;;;;;7.61;100.00;101992.94;5069800;28;20170;-48
2023/02/21 05:05:00;;;;;;;76.30;29.75;;;;;;;7.64;100.00;101987.34;5070888;28;20107;-46
2023/02/21 05:07:26;;;;;;;77.68;30.27;;;;;;;7.66;100.00;101990.72;5070551;28;20073;-44
2023/02/21 05:09:51;;;;;;;71.35;30.35;;;;;;;7.65;100.00;101987.19;5069982;28;20241;-45
2023/02/21 05:12:16;;;;;;;79.65;30.40;;;;;;;7.64;100.00;101985.50;5069408;28;20108;-45
2023/02/21 05:14:42;;;;;;;69.80;31.17;;;;;;;7.65;100.00;101989.88;5070765;28;20032;-44
2023/02/21 05:17:08;;;;;;;75.63;32.28;;;;;;;7.65;100.00;101981.00;5070154;28;20125;-46
2023/02/21 05:19:33;;;;;;;69.90;33.33;;;;;;;7.66;100.00;101986.22;5069053;28;20041;-46
2023/02/21 05:22:01;;;;;;;78.45;30.90;;;;;;;7.66;100.00;101988.91;5068605;28;20040;-46
2023/02/21 05:24:28;;;;;;;71.95;30.58;;;;;;;7.67;100.00;101987.91;5070246;28;20361;-44
2023/02/21 05:26:54;;;;;;;70.47;32.20;;;;;;;7.69;100.00;101988.63;5069095;28;20025;-47
2023/02/21 05:29:19;;;;;;;77.70;32.25;;;;;;;7.67;100.00;101987.91;5069162;28;20035;-44
2023/02/21 05:31:46;;;;;;;76.50;30.63;;;;;;;7.67;100.00;101984.41;5070125;28;20049;-47
2023/02/21 05:34:11;;;;;;;76.63;31.70;;;;;;;7.68;100.00;101975.34;5070145;28;20040;-45
2023/02/21 05:36:37;;;;;;;71.32;32.05;;;;;;;7.70;100.00;101978.75;5051391;28;20356;-44
2023/02/21 05:39:03;;;;;;;72.20;32.83;;;;;;;7.72;100.00;101982.16;5056125;28;20021;-45
2023/02/21 05:41:28;;;;;;;74.32;32.05;;;;;;;7.74;100.00;101972.16;5057982;28;20037;-46
2023/02/21 05:43:53;;;;;;;69.97;30.30;;;;;;;7.76;100.00;101972.00;5065697;28;20028;-44
2023/02/21 05:46:30;;;;;;;68.15;31.70;;;;;;;7.75;100.00;101978.34;5071556;28;20028;-45
2023/02/21 05:48:56;;;;;;;76.50;30.90;;;;;;;7.77;100.00;101979.94;5070551;28;20028;-45
2023/02/21 05:51:22;;;;;;;69.32;30.77;;;;;;;7.79;100.00;101980.59;5069220;28;20063;-45
2023/02/21 05:53:48;;;;;;;71.95;31.92;;;;;;;7.80;100.00;101981.47;5070518;28;20401;-45
2023/02/21 05:56:14;;;;;;;67.45;31.33;;;;;;;7.78;100.00;101970.03;5068595;28;20028;-44
2023/02/21 05:58:39;;;;;;;71.07;31.45;;;;;;;7.75;100.00;101964.97;5066988;28;20023;-45
2023/02/21 06:01:05;;;;;;;71.32;30.88;;;;;;;7.72;100.00;101959.88;5070669;28;20070;-46
2023/02/21 06:03:31;;;;;;;75.90;32.70;;;;;;;7.72;100.00;101968.75;5071005;28;20025;-47
2023/02/21 06:05:57;;;;;;;74.15;31.23;;;;;;;7.74;100.00;101973.97;5069497;28;20036;-47
2023/02/21 06:08:22;;;;;;;69.88;30.50;;;;;;;7.77;100.00;101973.72;5070859;28;20429;-44
2023/02/21 06:10:48;;;;;;;65.60;31.35;;;;;;;7.76;100.00;101974.69;5071204;28;20112;-45
2023/02/21 06:13:13;;;;;;;74.00;31.65;;;;;;;7.77;100.00;101968.38;5068992;28;20056;-44
2023/02/21 06:15:38;;;;;;;71.82;31.52;;;;;;;7.77;100.00;101963.84;5068519;28;20017;-46
2023/02/21 06:18:04;;;;;;;78.95;32.63;;;;;;;7.77;100.00;101973.72;5070757;28;20028;-47
2023/02/21 06:20:29;;;;;;;79.07;32.08;;;;;;;7.79;100.00;101977.09;5070950;28;20021;-46
2023/02/21 06:22:54;;;;;;;77.70;32.78;;;;;;;7.78;100.00;101980.75;5070575;28;20119;-48
2023/02/21 06:25:20;;;;;;;68.28;31.70;;;;;;;7.80;100.00;101989.53;5070489;28;20527;-48
2023/02/21 06:27:45;;;;;;;75.57;31.38;;;;;;;7.80;100.00;101981.47;5070041;28;20153;-45
2023/02/21 06:30:11;;;;;;;73.55;32.45;;;;;;;7.80;100.00;101984.16;5070927;28;20060;-46
2023/02/21 06:32:37;;;;;;;78.65;32.20;;;;;;;7.79;100.00;101983.28;5069465;28;20388;-45
2023/02/21 06:35:02;;;;;;;75.28;31.58;;;;;;;7.80;100.00;101981.47;5069801;28;20116;-47
2023/02/21 06:37:28;;;;;;;69.75;32.20;;;;;;;7.81;100.00;101985.84;5070303;28;20029;-45
2023/02/21 06:39:53;;;;;;;72.13;32.50;;;;;;;7.81;100.00;101991.22;5070873;28;20415;-45
2023/02/21 06:42:19;;;;;;;74.70;32.83;;;;;;;7.77;100.00;101984.44;5071114;28;20101;-46
2023/02/21 06:44:46;;;;;;;73.05;32.22;;;;;;;7.78;100.00;101991.47;5070465;28;20407;-47
2023/02/21 06:47:12;;;;;;;76.38;33.25;;;;;;;7.79;100.00;101983.28;5070630;28;20024;-45
2023/02/21 06:49:38;;;;;;;77.55;32.17;;;;;;;7.78;100.00;101986.13;5053228;28;20093;-45
2023/02/21 06:52:03;;;;;;;70.35;30.17;;;;;;;7.77;100.00;101984.44;5069493;28;20028;-47
2023/02/21 06:54:29;;;;;;;78.20;32.72;;;;;;;7.79;100.00;101995.84;5070599;28;20100;-48
2023/02/21 06:56:55;;;;;;;76.45;31.65;;;;;;;7.78;100.00;101996.84;5070514;28;20031;-46
2023/02/21 06:59:20;;;;;;;77.78;32.70;;;;;;;7.80;100.00;101986.84;5069412;28;20039;-45
2023/02/21 07:01:46;;;;;;;72.97;30.42;;;;;;;7.77;100.00;101987.97;5069774;28;20021;-47
2023/02/21 07:04:11;;;;;;;70.88;32.42;;;;;;;7.76;100.00;101980.03;5070035;28;20060;-46
2023/02/21 07:06:37;;;;;;;69.13;30.90;;;;;;;7.77;100.00;101979.09;5070095;28;20112;-44
2023/02/21 07:09:02;;;;;;;68.95;30.02;;;;;;;7.81;100.00;101980.50;5071027;28;20460;-47
2023/02/21 07:11:30;;;;;;;66.38;30.23;;;;;;;7.86;100.00;101986.28;5069553;28;20074;-47
2023/02/21 07:13:57;;;;;;;65.93;29.60;;;;;;;7.89;100.00;101991.38;5053119;28;20468;-45
2023/02/21 07:16:23;;;;;;;75.82;30.30;;;;;;;7.88;100.00;101985.16;5069229;28;20029;-46
2023/02/21 07:18:48;;;;;;;64.43;30.88;;;;;;;7.94;100.00;101991.81;5070909;28;20081;-47
2023/02/21 07:21:14;;;;;;;68.22;31.02;;;;;;;7.97;100.00;101985.34;5071549;28;20028;-46
2023/02/21 07:23:42;;;;;;;65.22;29.80;;;;;;;8.02;100.00;101983.94;5071597;28;20038;-47
2023/02/21 07:26:07;;;;;;;66.18;29.05;;;;;;;8.01;100.00;101982.25;5071839;28;20391;-48
2023/02/21 07:28:32;;;;;;;63.92;28.55;;;;;;;7.99;100.00;101969.97;5072322;28;20025;-46
2023/02/21 07:30:58;;;;;;;61.75;29.25;;;;;;;8.01;100.00;101976.03;5069443;28;20063;-46
2023/02/21 07:33:23;;;;;;;67.85;30.40;;;;;;;8.00;100.00;101980.53;5050050;28;20055;-46
2023/02/21 07:35:49;;;;;;;77.78;29.48;;;;;;;8.02;100.00;101981.25;5067368;28;20082;-45
2023/02/21 07:38:21;;;;;;;69.95;30.30;;;;;;;8.01;100.00;101987.63;5065614;28;20020;-46
2023/02/21 07:40:47;;;;;;;62.20;29.35;;;;;;;8.05;100.00;101983.66;5068818;28;20150;-47
2023/02/21 07:43:12;;;;;;;64.53;30.38;;;;;;;8.00;100.00;101980.53;5069273;28;20456;-45
2023/02/21 07:45:37;;;;;;;70.55;28.80;;;;;;;8.04;100.00;101987.31;5068850;28;20429;-44
2023/02/21 07:48:03;;;;;;;62.65;31.10;;;;;;;8.06;100.00;101988.03;5067781;28;20052;-46
2023/02/21 07:50:28;;;;;;;57.50;29.02;;;;;;;8.07;100.00;101997.78;5073667;28;20067;-46
2023/02/21 07:52:55;;;;;;;63.53;28.85;;;;;;;8.03;100.00;101985.66;5074157;28;20020;-45
2023/02/21 07:55:21;;;;;;;59.65;28.08;;;;;;;8.02;100.00;101983.94;5071146;28;20447;-48
2023/02/21 07:57:46;;;;;;;62.20;30.00;;;;;;;7.97;100.00;101982.66;5072665;28;20029;-45
2023/02/21 08:00:12;;;;;;;61.03;29.42;;;;;;;8.02;100.00;101994.66;5071643;28;20436;-46
2023/02/21 08:02:37;;;;;;;59.78;29.08;;;;;;;8.06;100.00;101998.78;5073476;28;20087;-45
2023/02/21 08:05:04;;;;;;;65.35;31.08;;;;;;;8.09;100.00;101994.97;5072779;28;20016;-44
2023/02/21 08:07:30;;;;;;;64.65;29.45;;;;;;;8.10;100.00;102002.00;5062641;28;20067;-45
2023/02/21 08:09:55;;;;;;;65.80;29.48;;;;;;;8.10;100.00;101997.50;5072937;28;20074;-47
2023/02/21 08:12:21;;;;;;;62.65;29.30;;;;;;;8.11;100.00;101987.66;5073077;28;20428;-46
2023/02/21 08:14:46;;;;;;;56.30;29.00;;;;;;;8.15;100.00;101994.41;5073536;28;20578;-46
2023/02/21 08:17:12;;;;;;;57.08;28.85;;;;;;;8.16;100.00;102005.97;5073537;28;20029;-45
2023/02/21 08:19:38;;;;;;;56.97;29.80;;;;;;;8.17;100.00;101994.28;5073048;28;20472;-45
2023/02/21 08:22:03;;;;;;;56.63;28.98;;;;;;;8.20;100.00;102002.06;5072645;28;20154;-46
2023/02/21 08:24:29;;;;;;;60.25;28.80;;;;;;;8.19;100.00;101989.59;5073710;28;20029;-46
2023/02/21 08:26:54;;;;;;;58.63;28.10;;;;;;;8.17;100.00;101992.44;5073974;28;20035;-45
2023/02/21 08:29:20;;;;;;;58.05;28.70;;;;;;;8.19;100.00;101985.13;5074185;28;20494;-46
2023/02/21 08:31:45;;;;;;;57.60;29.75;;;;;;;8.19;100.00;101989.59;5073761;28;20056;-44
2023/02/21 08:34:11;;;;;;;55.53;27.58;;;;;;;8.23;100.00;101997.25;5075667;28;20641;-45
2023/02/21 08:36:39;;;;;;;52.20;27.35;;;;;;;8.25;100.00;101999.81;5072945;28;20051;-46
2023/02/21 08:39:04;;;;;;;51.50;27.42;;;;;;;8.21;100.00;101980.44;5073113;28;20040;-45
2023/02/21 08:41:43;;;;;;;47.88;25.90;;;;;;;8.18;100.00;101982.56;5072841;28;20044;-45
2023/02/21 08:44:10;;;;;;;57.72;28.30;;;;;;;8.21;100.00;101982.28;5072395;28;20029;-45
2023/02/21 08:46:35;;;;;;;58.97;28.48;;;;;;;8.25;100.00;101989.06;5072544;28;20060;-47
2023/02/21 08:49:02;;;;;;;53.33;27.23;;;;;;;8.32;100.00;101995.56;5073094;28;20054;-45
2023/02/21 08:51:30;;;;;;;51.92;28.23;;;;;;;8.29;100.00;101985.97;5054631;28;20029;-45
2023/02/21 08:53:55;;;;;;;52.30;26.33;;;;;;;8.28;100.00;101983.44;5072355;28;20028;-45
2023/02/21 08:56:21;;;;;;;51.53;26.70;;;;;;;8.21;100.00;101982.28;5072466;28;20082;-45
2023/02/21 08:58:47;;;;;;;55.55;27.23;;;;;;;8.22;100.00;101978.63;5072230;28;20218;-44
2023/02/21 09:01:12;;;;;;;58.03;28.50;;;;;;;8.25;100.00;101979.19;5070346;28;20215;-45
2023/02/21 09:03:38;;;;;;;53.88;27.58;;;;;;;8.30;100.00;101982.31;5071018;28;20115;-46
2023/02/21 09:06:03;;;;;;;51.50;27.42;;;;;;;8.33;100.00;101982.03;5071847;28;20135;-48
2023/02/21 09:08:32;;;;;;;54.55;27.63;;;;;;;8.36;100.00;101981.72;5071040;28;20031;-47
2023/02/21 09:10:59;;;;;;;53.78;28.33;;;;;;;8.36;100.00;101980.91;5071254;28;20040;-45
2023/02/21 09:13:28;;;;;;;63.40;30.30;;;;;;;8.32;100.00;101976.78;5072793;28;20029;-48
2023/02/21 09:15:55;;;;;;;57.35;28.27;;;;;;;8.33;100.00;101979.34;5072178;28;20337;-45
2023/02/21 09:18:20;;;;;;;61.58;29.33;;;;;;;8.35;100.00;101979.22;5072834;28;20087;-46
2023/02/21 09:20:50;;;;;;;50.10;27.80;;;;;;;8.35;100.00;101979.22;5072083;28;20031;-44
2023/02/21 09:23:17;;;;;;;60.92;30.98;;;;;;;8.35;100.00;101977.38;5053807;28;20024;-48
2023/02/21 09:25:43;;;;;;;61.33;29.40;;;;;;;8.34;100.00;101972.13;5068559;28;20024;-44
2023/02/21 09:28:08;;;;;;;62.22;28.98;;;;;;;8.38;100.00;101972.72;5071195;28;20494;-46
2023/02/21 09:30:33;;;;;;;56.72;29.65;;;;;;;8.41;100.00;101975.16;5071582;28;20024;-47
2023/02/21 09:32:59;;;;;;;60.47;29.08;;;;;;;8.40;100.00;101968.94;5071120;28;20040;-45
2023/02/21 09:35:24;;;;;;;55.38;28.33;;;;;;;8.39;100.00;101972.59;5053257;28;20116;-46
2023/02/21 09:37:50;;;;;;;53.17;28.45;;;;;;;8.41;100.00;101962.59;5071338;28;20036;-48
2023/02/21 09:40:24;;;;;;;56.03;29.00;;;;;;;8.49;100.00;101960.03;5071893;28;20029;-46
2023/02/21 09:42:52;;;;;;;60.78;29.75;;;;;;;8.50;100.00;101959.03;5071400;28;20055;-45
2023/02/21 09:45:21;;;;;;;57.97;29.13;;;;;;;8.47;100.00;101953.97;5070184;28;20609;-45
2023/02/21 09:47:48;;;;;;;63.00;29.27;;;;;;;8.49;100.00;101952.00;5051652;28;20452;-48
2023/02/21 09:50:14;;;;;;;56.88;30.23;;;;;;;8.53;100.00;101953.41;5053055;28;20043;-46
2023/02/21 09:52:41;;;;;;;61.80;30.65;;;;;;;8.55;100.00;101958.63;5069449;28;20455;-47
2023/02/21 09:55:12;;;;;;;66.72;30.67;;;;;;;8.59;100.00;101962.72;5071754;28;20035;-48
2023/02/21 09:57:37;;;;;;;66.63;31.67;;;;;;;8.54;100.00;101963.16;5052079;28;20051;-44
2023/02/21 10:00:20;;;;;;;65.32;31.52;;;;;;;8.56;100.00;101966.53;5054727;28;20440;-46
2023/02/21 10:02:56;;;;;;;67.85;32.40;;;;;;;8.57;100.00;101954.81;5053126;28;20489;-45
2023/02/21 10:05:44;;;;;;;73.30;32.72;;;;;;;8.62;100.00;101951.72;5053142;28;20036;-46
2023/02/21 10:08:37;;;;;;;71.60;32.70;;;;;;;8.59;100.00;101953.84;5053226;28;20032;-48
2023/02/21 10:11:18;;;;;;;70.80;32.13;;;;;;;8.60;100.00;101956.38;5053815;28;20035;-46
2023/02/21 10:14:22;;;;;;;69.65;31.52;;;;;;;8.60;100.00;101955.53;5040528;28;20051;-45
2023/02/21 10:17:06;;;;;;;74.03;32.33;;;;;;;8.60;100.00;101951.00;5040337;28;20559;-44
2023/02/21 10:19:35;;;;;;;77.18;33.88;;;;;;;8.48;100.00;101949.47;5052023;28;20028;-44
2023/02/21 10:22:09;;;;;;;85.72;34.25;;;;;;;8.44;100.00;101946.19;5066688;28;20115;-45
2023/02/21 10:24:35;;;;;;;85.85;34.00;;;;;;;8.41;100.00;101946.47;5052669;28;20075;-44
2023/02/21 10:27:06;;;;;;;95.88;36.55;;;;;;;8.35;100.00;101947.03;5069960;28;20052;-46
2023/02/21 10:29:51;;;;;;;101.72;34.97;;;;;;;8.26;100.00;101956.72;5070854;28;20035;-47
2023/02/21 10:32:16;;;;;;;100.28;37.40;;;;;;;8.12;100.00;101958.00;5052417;28;20067;-46
2023/02/21 10:34:44;;;;;;;111.57;37.05;;;;;;;8.09;100.00;101963.63;5070721;28;20056;-45
2023/02/21 10:37:42;;;;;;;102.15;38.67;;;;;;;8.07;100.00;101968.28;5052700;28;20036;-45
2023/02/21 10:40:17;;;;;;;105.35;37.33;;;;;;;8.04;100.00;101971.25;5052822;28;20054;-47
2023/02/21 10:42:46;;;;;;;112.57;35.35;;;;;;;8.04;100.00;101962.34;5069844;28;20402;-46
2023/02/21 10:45:15;;;;;;;105.10;36.08;;;;;;;8.02;100.00;101961.63;5052999;28;20067;-46
2023/02/21 10:48:08;;;;;;;103.38;35.50;;;;;;;7.95;100.00;101965.84;5063904;28;20039;-47
2023/02/21 10:50:56;;;;;;;110.25;36.17;;;;;;;7.86;100.00;101963.00;5067503;28;20044;-47
2023/02/21 10:53:40;;;;;;;108.40;35.90;;;;;;;7.85;100.00;101963.16;5070337;28;20120;-47
2023/02/21 10:56:09;;;;;;;120.43;37.47;;;;;;;7.87;100.00;101969.22;5070226;28;20123;-48
2023/02/21 10:58:35;;;;;;;106.35;33.10;;;;;;;7.93;100.00;101967.84;5070010;28;20029;-48
2023/02/21 11:01:24;;;;;;;106.82;33.28;;;;;;;7.88;100.00;101976.28;5051709;28;20390;-48
2023/02/21 11:03:51;;;;;;;100.28;31.83;;;;;;;7.95;100.00;101969.38;5069381;28;20024;-44
2023/02/21 11:06:26;;;;;;;91.60;30.35;;;;;;;7.96;100.00;101972.94;5069357;28;20029;-46
2023/02/21 11:08:52;;;;;;;90.00;31.05;;;;;;;7.96;100.00;101972.94;5034676;28;20483;-48
2023/02/21 11:11:38;;;;;;;79.80;29.60;;;;;;;7.92;100.00;101972.34;5069622;28;20124;-44
2023/02/21 11:14:16;;;;;;;85.63;28.15;;;;;;;7.89;100.00;101970.78;5050021;28;20037;-47
2023/02/21 11:16:41;;;;;;;74.38;27.20;;;;;;;7.86;100.00;101972.88;5063354;28;20077;-44
2023/02/21 11:19:06;;;;;;;75.68;28.17;;;;;;;7.85;100.00;101963.16;5068536;28;20028;-45
2023/02/21 11:21:32;;;;;;;69.88;27.60;;;;;;;7.93;100.00;101963.31;5069320;28;20063;-47
2023/02/21 11:24:04;;;;;;;69.07;25.30;;;;;;;7.90;100.00;101960.91;5051240;28;20024;-45
2023/02/21 11:26:36;;;;;;;74.80;27.70;;;;;;;7.95;100.00;101949.75;5069623;28;20357;-46
2023/02/21 11:29:11;;;;;;;65.07;26.15;;;;;;;7.96;100.00;101955.00;5052036;28;20036;-46
2023/02/21 11:31:36;;;;;;;61.72;25.20;;;;;;;7.97;100.00;101951.31;5048980;28;20484;-44
2023/02/21 11:34:08;;;;;;;62.58;24.30;;;;;;;7.96;100.00;101946.97;5053456;28;20109;-45
2023/02/21 11:36:38;;;;;;;68.10;25.75;;;;;;;7.94;100.00;101946.25;5069924;28;20075;-45
2023/02/21 11:39:28;;;;;;;71.95;26.02;;;;;;;7.96;100.00;101948.81;5051082;28;20032;-44
2023/02/21 11:42:05;;;;;;;59.75;23.52;;;;;;;7.92;100.00;101942.84;5069804;28;20080;-47
2023/02/21 11:44:35;;;;;;;50.72;21.80;;;;;;;7.86;100.00;101940.72;5051370;28;20117;-47
2023/02/21 11:47:23;;;;;;;55.88;21.88;;;;;;;7.90;100.00;101942.16;5049555;28;20037;-46
2023/02/21 11:49:48;;;;;;;;;;;;;;;7.92;100.00;101940.16;5032735;28;20017;-47
2023/02/21 11:52:19;;;;;;;46.47;17.90;;;;;;;7.85;100.00;101936.38;5066306;28;19912;-44
2023/02/21 11:54:45;;;;;;;45.67;18.80;;;;;;;7.87;100.00;101937.06;5051015;28;20033;-47
2023/02/21 11:57:22;;;;;;;44.10;19.77;;;;;;;7.84;100.00;101938.16;5069513;28;20372;-48
2023/02/21 11:59:48;;;;;;;48.28;19.00;;;;;;;7.87;100.00;101937.91;5051396;28;20110;-44
2023/02/21 12:02:28;;;;;;;47.22;19.67;;;;;;;7.87;100.00;101939.72;5070192;28;20071;-46
2023/02/21 12:05:15;;;;;;;44.17;18.17;;;;;;;7.89;100.00;101927.88;5069703;28;20029;-45
2023/02/21 12:07:41;;;;;;;45.22;18.55;;;;;;;7.86;100.00;101920.13;5062340;28;20025;-46
2023/02/21 12:10:33;;;;;;;47.60;19.60;;;;;;;7.92;100.00;101924.09;5069078;28;20017;-46
2023/02/21 12:13:16;;;;;;;44.05;18.63;;;;;;;7.90;100.00;101918.03;5050706;28;20063;-44
2023/02/21 12:16:02;;;;;;;48.97;20.45;;;;;;;7.87;100.00;101918.28;5069175;28;20033;-47
2023/02/21 12:18:40;;;;;;;47.53;19.75;;;;;;;8.00;100.00;101916.19;5069516;28;20047;-45
2023/02/21 12:21:11;;;;;;;54.72;21.90;;;;;;;8.05;100.00;101913.94;5068615;28;20028;-47
2023/02/21 12:23:51;;;;;;;50.05;20.98;;;;;;;8.07;100.00;101917.34;5069257;28;20249;-48
2023/02/21 12:26:45;;;;;;;48.65;20.42;;;;;;;8.02;100.00;101914.22;5069307;28;20140;-45
2023/02/21 12:29:46;;;;;;;54.80;21.05;;;;;;;8.10;100.00;101905.50;5051635;28;20111;-46
2023/02/21 12:32:50;;;;;;;47.25;20.52;;;;;;;8.04;100.00;101906.06;5036379;28;20048;-46
2023/02/21 12:35:32;;;;;;;49.83;20.67;;;;;;;8.08;100.00;101902.97;5022529;28;20040;-46
2023/02/21 12:38:03;;;;;;;50.30;21.70;;;;;;;8.08;100.00;101897.59;5069302;28;20707;-51
2023/02/21 12:41:10;;;;;;;51.90;21.15;;;;;;;8.07;100.00;101895.88;5063268;28;20025;-46
2023/02/21 12:44:10;;;;;;;50.33;21.02;;;;;;;7.97;100.00;101896.88;5070840;28;20079;-45
2023/02/21 12:46:56;;;;;;;50.58;20.15;;;;;;;7.94;100.00;101897.16;5053235;28;20518;-47
2023/02/21 12:50:02;;;;;;;47.95;20.52;;;;;;;7.96;100.00;101896.03;5071618;28;20032;-47
2023/02/21 12:52:40;;;;;;;51.65;21.40;;;;;;;8.06;100.00;101890.69;5040838;28;20348;-45
2023/02/21 12:55:15;;;;;;;47.42;19.52;;;;;;;8.00;100.00;101888.53;5053790;28;20037;-44
2023/02/21 12:58:19;;;;;;;46.10;19.83;;;;;;;7.93;100.00;101898.16;5054544;28;20166;-45
2023/02/21 13:00:51;;;;;;;53.53;20.85;;;;;;;7.98;100.00;101890.50;5072029;28;20025;-44
2023/02/21 13:03:45;;;;;;;50.80;21.33;;;;;;;7.94;100.00;101895.31;5054457;28;20032;-47
2023/02/21 13:06:48;;;;;;;52.97;20.98;;;;;;;7.89;100.00;101886.84;5071902;28;20061;-46
2023/02/21 13:09:25;;;;;;;54.30;20.08;;;;;;;7.88;100.00;101887.84;5057689;28;20044;-46
2023/02/21 13:12:05;;;;;;;47.90;21.02;;;;;;;7.79;100.00;101885.97;5053731;28;20100;-46
2023/02/21 13:14:41;;;;;;;48.33;19.25;;;;;;;7.83;100.00;101885.56;5053441;28;20028;-44
2023/02/21 13:17:12;;;;;;;43.88;16.98;;;;;;;7.80;100.00;101887.69;5070779;28;20036;-45
2023/02/21 13:19:45;;;;;;;44.20;17.10;;;;;;;7.68;100.00;101879.75;5053550;28;20046;-45
2023/02/21 13:25:28;;;;;;;38.40;15.23;;;;;;;7.73;100.00;101876.66;5052851;28;20055;-45
2023/02/21 13:28:16;;;;;;;43.03;15.88;;;;;;;7.69;100.00;101868.06;5070976;28;20089;-48
2023/02/21 13:30:47;;;;;;;37.88;16.27;;;;;;;7.75;100.00;101873.84;5052060;28;20105;-46
2023/02/21 13:33:37;;;;;;;36.75;15.02;;;;;;;7.70;100.00;101872.41;5053059;28;20056;-47
2023/02/21 13:36:14;;;;;;;39.17;15.00;;;;;;;7.69;100.00;101870.72;5071008;28;20107;-47
2023/02/21 13:38:39;;;;;;;37.45;15.25;;;;;;;7.81;100.00;101875.97;5070073;28;20043;-43
2023/02/21 13:41:10;;;;;;;34.38;14.07;;;;;;;7.79;100.00;101868.06;5070697;28;20033;-47
2023/02/21 13:43:46;;;;;;;35.17;13.55;;;;;;;7.73;100.00;101867.78;5070214;28;20033;-45
2023/02/21 13:46:43;;;;;;;32.45;12.38;;;;;;;7.69;100.00;101853.81;5053242;28;20571;-45
2023/02/21 13:49:43;;;;;;;29.90;12.48;;;;;;;7.67;100.00;101856.63;5071479;28;20103;-44